Terminal Aerodrome Forecast
Issued by NWS

Current Version | Previous Version | Graphics & Text | Print | Product List | Glossary On
Versions: 1 2 3 4 5 6 7 8 9 10 11 12 13 14 15 16 17
000
FTUS41 KPBZ 251720
TAFMGW
TAF
KMGW 251720Z 2518/2618 20007G15KT P6SM SCT080
     FM260000 21005KT P6SM BKN100
     FM261000 18004KT P6SM VCSH BKN035=

USA.gov is the U.S. government's official web portal to all federal, state and local government web resources and services.